Time;durP1;ratioP1;P1;durP2;ratioP2;P2;SDS_P1;SDS_P2;PMS_P1;PMS_P2;Temp;Humidity;BMP_temperature;BMP_pressure;BME280_temperature;BME280_humidity;BME280_pressure;Samples;Min_cycle;Max_cycle;Signal;HPM_P1;HPM_P2
2021/10/13 00:01:57;;;;;;;7.03;6.38;;;;;;;28.83;21.00;94000.78;5062432;28;20379;-54
2021/10/13 00:04:24;;;;;;;7.05;6.45;;;;;;;29.00;20.71;93993.59;5054070;28;20071;-54
2021/10/13 00:06:51;;;;;;;7.45;6.75;;;;;;;29.07;20.46;93988.09;5054124;28;20108;-49
2021/10/13 00:09:18;;;;;;;7.68;6.97;;;;;;;29.13;20.37;93986.44;5054046;28;20048;-49
2021/10/13 00:11:45;;;;;;;7.85;7.13;;;;;;;29.12;20.70;93984.91;5053581;28;20052;-51
2021/10/13 00:14:12;;;;;;;7.70;6.95;;;;;;;29.22;20.46;93986.66;5054360;28;20056;-63
2021/10/13 00:16:39;;;;;;;7.63;6.93;;;;;;;29.49;19.89;93980.38;5053487;28;20049;-49
2021/10/13 00:19:06;;;;;;;7.78;7.05;;;;;;;29.43;19.94;93986.25;5053508;28;20071;-48
2021/10/13 00:21:33;;;;;;;8.00;7.20;;;;;;;29.29;20.52;93991.88;5053589;28;20057;-53
2021/10/13 00:24:00;;;;;;;6.82;6.22;;;;;;;29.29;20.26;93973.03;5054080;28;20049;-53
2021/10/13 00:26:27;;;;;;;8.25;7.10;;;;;;;29.60;20.18;93986.31;5053580;28;20051;-58
2021/10/13 00:28:54;;;;;;;7.72;7.03;;;;;;;29.59;19.97;93974.78;5053932;28;20053;-49
2021/10/13 00:31:22;;;;;;;7.90;7.13;;;;;;;29.37;20.30;93969.03;5054310;28;20059;-48
2021/10/13 00:33:49;;;;;;;8.18;7.47;;;;;;;29.69;19.73;93973.81;5073714;28;20045;-48
2021/10/13 00:36:16;;;;;;;7.65;7.00;;;;;;;29.43;20.14;93962.00;5073537;28;20052;-50
2021/10/13 00:38:43;;;;;;;7.68;6.97;;;;;;;29.32;19.80;93960.69;5073485;28;20051;-49
2021/10/13 00:41:10;;;;;;;8.50;7.75;;;;;;;29.04;20.57;93957.38;5072948;28;20406;-49
2021/10/13 00:43:37;;;;;;;7.90;7.10;;;;;;;28.97;20.61;93956.75;5069677;28;20056;-55
2021/10/13 00:46:06;;;;;;;8.35;7.60;;;;;;;29.36;20.08;93953.28;5052891;28;20052;-53
2021/10/13 00:48:33;;;;;;;7.80;7.10;;;;;;;29.12;20.30;93952.63;5052911;28;20371;-65
2021/10/13 00:51:00;;;;;;;8.02;7.22;;;;;;;29.58;19.93;93950.94;5053101;28;20057;-47
2021/10/13 00:53:27;;;;;;;7.90;7.10;;;;;;;28.97;20.54;93951.38;5035593;28;20052;-49
2021/10/13 00:55:56;;;;;;;8.85;7.60;;;;;;;28.96;20.54;93944.47;5053208;28;20056;-47
2021/10/13 00:58:24;;;;;;;8.10;7.30;;;;;;;29.16;20.34;93943.31;5052509;28;20041;-51
2021/10/13 01:00:57;;;;;;;7.88;7.18;;;;;;;29.13;20.21;93943.38;5052975;28;20041;-52
2021/10/13 01:03:49;;;;;;;8.88;8.07;;;;;;;29.59;19.67;93942.47;5052386;28;20049;-50
2021/10/13 01:06:28;;;;;;;8.00;7.30;;;;;;;29.17;19.96;93939.47;5053104;28;20056;-46
2021/10/13 01:09:13;;;;;;;8.55;7.68;;;;;;;29.29;19.87;93943.44;5035286;28;20045;-49
2021/10/13 01:11:50;;;;;;;8.18;7.47;;;;;;;29.40;19.58;93945.91;5051981;28;20475;-48
2021/10/13 01:14:31;;;;;;;8.63;7.82;;;;;;;29.71;19.36;93949.16;5052946;28;20075;-50
2021/10/13 01:17:25;;;;;;;8.23;7.53;;;;;;;29.24;20.07;93943.94;5037202;28;20052;-51
2021/10/13 01:20:25;;;;;;;9.10;8.07;;;;;;;29.46;19.81;93955.06;5060399;28;20053;-57
2021/10/13 01:23:06;;;;;;;9.02;8.13;;;;;;;29.38;19.85;93943.63;5061321;28;20431;-58
2021/10/13 01:25:46;;;;;;;8.95;8.15;;;;;;;29.53;19.67;93946.81;5077474;28;20052;-47
2021/10/13 01:28:19;;;;;;;9.82;8.98;;;;;;;29.02;20.26;93937.44;5077809;28;20059;-47
2021/10/13 01:31:04;;;;;;;9.75;8.00;;;;;;;28.93;20.47;93939.94;5075320;28;20048;-47
2021/10/13 01:33:38;;;;;;;9.68;8.52;;;;;;;29.42;19.70;93933.56;5067582;28;20056;-50
2021/10/13 01:36:11;;;;;;;9.82;8.77;;;;;;;28.71;20.72;93940.28;5039345;28;20059;-49
2021/10/13 01:38:43;;;;;;;9.13;8.05;;;;;;;28.89;20.47;93939.22;5039637;28;20053;-50
2021/10/13 01:41:11;;;;;;;9.10;7.95;;;;;;;29.29;19.84;93942.69;5039149;28;20045;-66
2021/10/13 01:43:42;;;;;;;9.45;8.60;;;;;;;29.46;19.92;93934.28;5038974;28;20049;-48
2021/10/13 01:46:10;;;;;;;9.20;8.38;;;;;;;29.44;19.55;93942.00;5039680;28;20377;-48
2021/10/13 01:48:37;;;;;;;8.95;8.15;;;;;;;29.15;19.68;93941.81;5045368;28;20052;-53
2021/10/13 01:51:05;;;;;;;9.20;8.40;;;;;;;29.57;19.51;93938.66;5037164;28;20057;-47
2021/10/13 01:53:33;;;;;;;8.98;8.07;;;;;;;29.15;19.96;93946.44;5038823;28;20061;-51
2021/10/13 01:56:00;;;;;;;9.95;9.05;;;;;;;28.55;20.69;93942.88;5045321;28;20041;-50
2021/10/13 01:58:28;;;;;;;9.68;8.68;;;;;;;28.52;20.52;93930.25;5055228;28;20443;-49
2021/10/13 02:00:57;;;;;;;9.35;8.32;;;;;;;28.94;20.27;93944.16;5056358;28;20064;-48
2021/10/13 02:03:26;;;;;;;9.10;8.23;;;;;;;29.52;19.58;93937.22;5056077;28;20080;-50
2021/10/13 02:05:55;;;;;;;10.02;9.02;;;;;;;29.28;19.65;93944.63;5038512;28;20065;-49
2021/10/13 02:08:23;;;;;;;9.40;8.50;;;;;;;29.73;19.41;93946.78;5037915;28;20053;-55
2021/10/13 02:10:51;;;;;;;9.10;8.30;;;;;;;29.36;19.94;93954.06;5037744;28;20044;-49
2021/10/13 02:13:19;;;;;;;9.43;8.63;;;;;;;29.48;19.56;93951.94;5055774;28;20468;-47
2021/10/13 02:15:47;;;;;;;9.70;8.73;;;;;;;28.91;20.06;93947.66;5037892;28;20049;-49
2021/10/13 02:18:20;;;;;;;10.38;8.88;;;;;;;29.17;19.72;93954.84;5038425;28;20055;-49
2021/10/13 02:20:48;;;;;;;9.90;8.93;;;;;;;28.82;20.37;93956.97;5055186;28;20056;-47
2021/10/13 02:23:17;;;;;;;10.30;9.30;;;;;;;28.38;20.45;93954.72;5055117;28;20044;-51
2021/10/13 02:25:47;;;;;;;10.48;9.45;;;;;;;28.73;20.63;93954.09;5054853;28;20060;-53
2021/10/13 02:28:42;;;;;;;10.70;9.07;;;;;;;28.78;20.26;93956.28;5037918;28;20375;-54
2021/10/13 02:31:10;;;;;;;10.15;9.15;;;;;;;28.70;20.45;93948.78;5035462;28;20053;-59
2021/10/13 02:33:38;;;;;;;10.88;9.68;;;;;;;28.73;20.58;93954.09;5057831;28;20048;-63
2021/10/13 02:36:05;;;;;;;10.32;9.30;;;;;;;28.73;20.30;93951.41;5075720;28;20048;-55
2021/10/13 02:38:32;;;;;;;10.52;9.52;;;;;;;28.61;20.42;93954.66;5076024;28;20052;-48
2021/10/13 02:41:00;;;;;;;10.10;9.18;;;;;;;28.53;20.58;93961.34;5075931;28;20052;-50
2021/10/13 02:43:27;;;;;;;10.73;9.73;;;;;;;28.69;20.20;93958.00;5075528;28;20047;-49
2021/10/13 02:46:09;;;;;;;10.32;9.25;;;;;;;29.01;20.05;93957.44;5075868;28;20052;-48
2021/10/13 02:48:36;;;;;;;;;;;;;;;29.35;19.50;93966.00;5054350;28;20052;-48
2021/10/13 02:51:10;;;;;;;10.05;9.15;;;;;;;28.96;19.81;93961.38;5038182;28;19927;-53
2021/10/13 02:53:41;;;;;;;9.73;8.82;;;;;;;28.72;19.73;93963.31;5055375;28;20063;-59
2021/10/13 02:56:36;;;;;;;10.20;9.02;;;;;;;28.24;20.86;93966.41;5054635;28;20059;-49
2021/10/13 02:59:26;;;;;;;10.77;9.68;;;;;;;28.69;20.37;93979.53;5051707;28;20041;-50
2021/10/13 03:01:56;;;;;;;10.60;9.70;;;;;;;28.50;20.20;93983.69;5055195;28;20045;-53
2021/10/13 03:04:28;;;;;;;9.57;8.75;;;;;;;28.33;20.49;93980.09;5037712;28;20366;-48
2021/10/13 03:06:59;;;;;;;9.73;8.82;;;;;;;28.60;20.22;93988.09;5037949;28;20391;-56
2021/10/13 03:09:29;;;;;;;9.73;8.82;;;;;;;28.89;19.67;93982.25;5054985;28;20052;-53
2021/10/13 03:12:01;;;;;;;10.63;9.63;;;;;;;28.75;19.83;93994.78;5055195;28;20053;-49
2021/10/13 03:14:30;;;;;;;10.60;9.60;;;;;;;28.65;20.02;93994.97;5037032;28;20056;-47
2021/10/13 03:16:57;;;;;;;10.30;9.40;;;;;;;29.11;19.30;93994.16;5037493;28;20103;-50
2021/10/13 03:19:26;;;;;;;10.32;9.32;;;;;;;29.25;19.12;94001.22;5047409;28;20071;-48
2021/10/13 03:21:54;;;;;;;9.70;8.80;;;;;;;29.19;19.21;94008.25;5053313;28;20388;-48
2021/10/13 03:24:21;;;;;;;10.23;9.15;;;;;;;28.83;19.24;94006.16;5036289;28;20056;-48
2021/10/13 03:26:49;;;;;;;10.32;9.40;;;;;;;29.06;19.06;94006.16;5054573;28;20048;-60
2021/10/13 03:29:17;;;;;;;9.85;8.95;;;;;;;29.24;19.25;94007.78;5055038;28;20372;-51
2021/10/13 03:31:45;;;;;;;10.68;9.57;;;;;;;29.05;19.31;94001.19;5054412;28;20056;-53
2021/10/13 03:34:16;;;;;;;9.93;8.98;;;;;;;29.06;19.04;94008.84;5054730;28;20087;-51
2021/10/13 03:36:46;;;;;;;9.90;9.00;;;;;;;29.33;18.77;94005.28;5054971;28;20041;-48
2021/10/13 03:39:14;;;;;;;10.13;9.13;;;;;;;29.00;18.84;94009.75;5054286;28;20067;-47
2021/10/13 03:41:41;;;;;;;10.05;9.05;;;;;;;29.42;18.82;94008.94;5054530;28;20374;-48
2021/10/13 03:44:09;;;;;;;10.13;8.93;;;;;;;29.16;18.90;94004.47;5054273;28;20048;-62
2021/10/13 03:46:37;;;;;;;10.40;9.38;;;;;;;29.14;19.08;94004.09;5054539;28;20060;-49
2021/10/13 03:49:05;;;;;;;10.35;9.35;;;;;;;29.03;18.86;94004.28;5061527;28;20048;-49
2021/10/13 03:51:32;;;;;;;10.60;9.60;;;;;;;28.91;19.45;94004.16;5074023;28;20052;-50
2021/10/13 03:53:59;;;;;;;9.82;8.93;;;;;;;29.14;18.98;93998.69;5053985;28;20057;-48
2021/10/13 03:56:30;;;;;;;10.55;9.40;;;;;;;29.32;18.85;94004.50;5053452;28;20064;-48
2021/10/13 03:58:58;;;;;;;10.10;9.10;;;;;;;29.07;19.08;94015.00;5053446;28;20379;-47
2021/10/13 04:01:25;;;;;;;10.68;8.52;;;;;;;28.45;19.72;94024.47;5054216;28;20290;-49
2021/10/13 04:03:52;;;;;;;10.25;9.18;;;;;;;28.29;20.01;94010.88;5053690;28;20045;-46
2021/10/13 04:06:19;;;;;;;10.57;9.48;;;;;;;28.70;19.48;94024.84;5053772;28;20498;-52
2021/10/13 04:08:46;;;;;;;10.40;9.40;;;;;;;28.59;18.98;94020.78;5053302;28;20087;-48
2021/10/13 04:11:13;;;;;;;10.18;9.20;;;;;;;28.82;18.89;94021.53;5053763;28;20060;-59
2021/10/13 04:13:40;;;;;;;9.38;8.57;;;;;;;28.67;19.01;94020.28;5053839;28;20468;-51
2021/10/13 04:16:08;;;;;;;9.18;8.38;;;;;;;28.56;19.64;94022.38;5053560;28;20052;-55
2021/10/13 04:18:35;;;;;;;10.57;9.52;;;;;;;29.13;18.87;94029.47;5056734;28;20048;-57
2021/10/13 04:21:02;;;;;;;9.63;8.73;;;;;;;28.98;19.04;94033.63;5060906;28;20061;-55
2021/10/13 04:23:29;;;;;;;10.32;9.25;;;;;;;28.98;19.25;94028.22;5053697;28;20531;-47
2021/10/13 04:25:56;;;;;;;10.32;9.30;;;;;;;28.99;18.86;94035.13;5053954;28;20456;-47
2021/10/13 04:28:23;;;;;;;9.68;8.77;;;;;;;28.58;19.58;94027.31;5053688;28;20052;-49
2021/10/13 04:30:50;;;;;;;10.48;9.48;;;;;;;28.81;19.16;94025.41;5053482;28;20048;-48
2021/10/13 04:33:17;;;;;;;10.75;9.68;;;;;;;29.89;18.08;94030.31;5037063;28;20120;-49
2021/10/13 04:35:45;;;;;;;14.57;12.85;;;;;;;29.61;18.13;94037.06;5073516;28;20352;-49
2021/10/13 04:38:12;;;;;;;22.38;20.02;;;;;;;29.24;18.75;94030.06;5074049;28;20044;-49
2021/10/13 04:40:39;;;;;;;22.15;19.75;;;;;;;29.32;18.61;94042.19;5064672;28;20048;-56
2021/10/13 04:43:06;;;;;;;51.03;41.00;;;;;;;28.77;19.90;94037.41;5053418;28;20053;-44
2021/10/13 04:45:33;;;;;;;50.45;40.47;;;;;;;30.17;18.63;94031.66;5054043;28;20048;-46
2021/10/13 04:48:00;;;;;;;46.03;38.15;;;;;;;31.02;17.44;94042.41;5047494;28;20056;-48
2021/10/13 04:50:27;;;;;;;73.07;57.92;;;;;;;30.89;18.96;94055.06;5054771;28;20443;-45
2021/10/13 04:52:54;;;;;;;74.25;57.65;;;;;;;31.11;19.39;94056.03;5053810;28;20060;-46
2021/10/13 04:55:21;;;;;;;49.70;39.97;;;;;;;31.32;18.46;94070.19;5058131;28;20045;-46
2021/10/13 04:57:48;;;;;;;34.95;28.73;;;;;;;30.41;18.02;94067.31;5053911;28;20356;-47
2021/10/13 05:00:15;;;;;;;27.85;24.38;;;;;;;30.40;17.75;94063.13;5053108;28;20060;-47
2021/10/13 05:02:42;;;;;;;23.20;20.80;;;;;;;30.00;17.50;94073.97;5052762;28;20738;-48
2021/10/13 05:05:09;;;;;;;25.23;22.55;;;;;;;30.21;17.86;94072.03;5052692;28;20483;-49
2021/10/13 05:07:37;;;;;;;37.80;33.40;;;;;;;32.86;16.53;94073.50;5053674;28;20048;-51
2021/10/13 05:10:04;;;;;;;26.27;22.45;;;;;;;32.25;16.53;94079.94;5053421;28;20060;-56
2021/10/13 05:12:31;;;;;;;15.82;14.15;;;;;;;30.64;17.46;94075.28;5053938;28;20124;-53
2021/10/13 05:14:58;;;;;;;15.68;14.10;;;;;;;31.01;17.30;94084.06;5053601;28;20053;-46
2021/10/13 05:17:25;;;;;;;15.15;13.65;;;;;;;30.93;17.21;94093.50;5053566;28;20060;-46
2021/10/13 05:19:52;;;;;;;14.50;13.00;;;;;;;30.64;17.55;94091.47;5052860;28;20061;-47
2021/10/13 05:22:19;;;;;;;13.02;11.68;;;;;;;29.84;17.90;94092.78;5053467;28;20329;-46
2021/10/13 05:24:46;;;;;;;13.15;11.85;;;;;;;29.55;17.90;94086.44;5053303;28;20053;-45
2021/10/13 05:27:14;;;;;;;12.40;11.23;;;;;;;29.34;18.08;94084.84;5053497;28;20483;-48
2021/10/13 05:29:41;;;;;;;12.55;11.20;;;;;;;28.96;18.43;94097.84;5053397;28;20049;-49
2021/10/13 05:32:08;;;;;;;12.25;11.00;;;;;;;29.14;17.91;94096.34;5052279;28;20048;-50
2021/10/13 05:34:35;;;;;;;11.43;10.32;;;;;;;29.07;18.04;94101.84;5053248;28;20053;-46
2021/10/13 05:37:03;;;;;;;12.02;10.70;;;;;;;29.19;17.97;94103.22;5053507;28;20052;-46
2021/10/13 05:39:30;;;;;;;12.18;10.88;;;;;;;29.04;18.04;94104.59;5053062;28;20057;-48
2021/10/13 05:41:58;;;;;;;12.63;11.35;;;;;;;28.97;18.23;94107.44;5053278;28;20045;-49
2021/10/13 05:44:25;;;;;;;11.43;10.32;;;;;;;29.32;17.71;94117.56;5053095;28;20056;-46
2021/10/13 05:46:52;;;;;;;11.30;10.10;;;;;;;29.26;17.80;94113.09;5052893;28;20053;-47
2021/10/13 05:49:20;;;;;;;11.90;10.52;;;;;;;29.12;18.41;94114.06;5061436;28;20064;-46
2021/10/13 05:51:47;;;;;;;10.77;9.77;;;;;;;29.01;18.09;94114.25;5054148;28;20056;-46
2021/10/13 05:54:14;;;;;;;11.30;10.20;;;;;;;29.30;17.95;94117.22;5052989;28;20534;-47
2021/10/13 05:56:41;;;;;;;11.70;10.50;;;;;;;29.32;17.91;94117.56;5052277;28;20054;-47
2021/10/13 05:59:08;;;;;;;11.15;10.05;;;;;;;30.24;17.27;94122.41;5053261;28;20506;-48
2021/10/13 06:01:35;;;;;;;12.27;11.02;;;;;;;31.43;16.65;94130.06;5053155;28;20041;-48
2021/10/13 06:04:02;;;;;;;11.90;10.38;;;;;;;31.50;17.15;94138.03;5055673;28;20052;-50
2021/10/13 06:06:29;;;;;;;13.90;11.90;;;;;;;31.68;17.16;94130.19;5075915;28;20054;-45
2021/10/13 06:08:57;;;;;;;12.57;11.35;;;;;;;31.59;17.56;94127.34;5076815;28;20056;-46
2021/10/13 06:11:24;;;;;;;12.65;10.98;;;;;;;31.09;17.82;94125.88;5066571;28;20044;-47
2021/10/13 06:13:52;;;;;;;13.02;11.73;;;;;;;30.14;19.30;94132.22;5066625;28;20340;-49
2021/10/13 06:16:20;;;;;;;13.18;11.60;;;;;;;31.52;18.05;94141.06;5068150;28;20052;-53
2021/10/13 06:18:50;;;;;;;13.73;10.38;;;;;;;32.51;15.56;94134.84;5075418;28;20052;-43
2021/10/13 06:21:19;;;;;;;11.55;10.05;;;;;;;33.67;14.96;94145.88;5070489;28;20060;-49
2021/10/13 06:23:46;;;;;;;14.65;9.90;;;;;;;34.08;14.39;94146.78;5061905;28;20044;-51
2021/10/13 06:26:14;;;;;;;11.38;10.30;;;;;;;34.41;14.46;94151.84;5056365;28;20049;-48
2021/10/13 06:28:41;;;;;;;11.38;9.32;;;;;;;34.01;14.65;94152.47;5056600;28;20051;-60
2021/10/13 06:31:09;;;;;;;12.15;11.02;;;;;;;34.15;14.75;94151.22;5056263;28;20053;-49
2021/10/13 06:33:36;;;;;;;191.00;172.65;;;;;;;34.38;14.73;94141.88;5056681;28;20440;-49
2021/10/13 06:36:07;;;;;;;82.50;74.13;;;;;;;33.90;14.87;94146.69;5055631;28;20063;-50
2021/10/13 06:38:34;;;;;;;28.63;25.77;;;;;;;34.06;14.39;94145.72;5056623;28;20052;-51
2021/10/13 06:41:02;;;;;;;17.15;15.27;;;;;;;34.11;14.19;94145.91;5056277;28;20452;-50
2021/10/13 06:43:29;;;;;;;14.10;12.63;;;;;;;35.68;14.04;94156.16;5055299;28;20045;-48
2021/10/13 06:45:57;;;;;;;13.68;12.15;;;;;;;35.72;14.17;94157.53;5055808;28;20448;-47
2021/10/13 06:48:24;;;;;;;107.00;74.47;;;;;;;35.71;14.08;94157.97;5055320;28;20399;-48
2021/10/13 06:50:51;;;;;;;40.97;31.60;;;;;;;35.11;13.74;94148.34;5055627;28;20053;-45
2021/10/13 06:53:18;;;;;;;15.00;13.38;;;;;;;35.13;13.81;94145.19;5055768;28;20049;-54
2021/10/13 06:55:45;;;;;;;12.48;9.98;;;;;;;35.05;14.16;94143.97;5054916;28;20056;-46
2021/10/13 06:58:13;;;;;;;10.20;9.20;;;;;;;35.20;14.29;94144.91;5055031;28;20052;-55
2021/10/13 07:00:40;;;;;;;10.35;9.27;;;;;;;34.88;13.90;94146.94;5055771;28;20044;-51
2021/10/13 07:03:08;;;;;;;10.38;8.82;;;;;;;35.62;13.99;94153.28;5055779;28;20045;-55
2021/10/13 07:05:35;;;;;;;9.68;8.77;;;;;;;35.84;13.58;94145.00;5055408;28;20052;-53
2021/10/13 07:08:03;;;;;;;26.75;24.75;;;;;;;35.74;13.15;94155.09;5055932;28;20049;-50
2021/10/13 07:10:31;;;;;;;35.22;31.80;;;;;;;35.84;13.09;94158.59;5054466;28;20068;-53
2021/10/13 07:12:58;;;;;;;32.78;29.98;;;;;;;35.89;13.45;94155.25;5054901;28;20040;-50
2021/10/13 07:15:25;;;;;;;24.08;22.35;;;;;;;35.17;14.05;94156.69;5054033;28;20049;-52
2021/10/13 07:17:52;;;;;;;33.55;30.52;;;;;;;35.82;13.03;94152.81;5055053;28;20048;-45
2021/10/13 07:20:19;;;;;;;30.98;28.48;;;;;;;36.04;12.89;94156.16;5067451;28;20060;-51
2021/10/13 07:22:47;;;;;;;29.92;27.55;;;;;;;36.08;13.30;94158.72;5075353;28;20049;-48
2021/10/13 07:25:19;;;;;;;14.02;12.93;;;;;;;35.36;13.59;94152.78;5055009;28;20048;-50
2021/10/13 07:27:46;;;;;;;27.83;25.73;;;;;;;35.93;13.11;94155.88;5055384;28;20060;-51
2021/10/13 07:30:17;;;;;;;27.88;25.67;;;;;;;36.37;13.08;94155.53;5054910;28;20356;-49
2021/10/13 07:32:44;;;;;;;22.60;21.00;;;;;;;36.41;13.44;94161.56;5055153;28;20048;-51
2021/10/13 07:35:11;;;;;;;9.32;7.50;;;;;;;36.49;12.74;94168.19;5054813;28;20135;-55
2021/10/13 07:37:38;;;;;;;8.50;7.70;;;;;;;36.68;13.03;94161.47;5055009;28;20045;-52
2021/10/13 07:40:06;;;;;;;7.95;6.90;;;;;;;36.00;12.98;94150.13;5055014;28;20048;-56
2021/10/13 07:42:33;;;;;;;8.48;7.47;;;;;;;36.32;12.71;94167.78;5054701;28;20037;-54
2021/10/13 07:45:00;;;;;;;7.75;7.00;;;;;;;36.84;12.41;94151.47;5056590;28;20051;-54
2021/10/13 07:47:28;;;;;;;9.63;8.75;;;;;;;36.05;13.46;94152.22;5055590;28;20059;-53
2021/10/13 07:49:55;;;;;;;17.10;15.38;;;;;;;36.85;12.54;94155.69;5053881;28;20048;-53
2021/10/13 07:52:22;;;;;;;51.03;46.05;;;;;;;36.19;12.61;94161.75;5054412;28;20055;-57
2021/10/13 07:54:49;;;;;;;13.52;12.32;;;;;;;35.36;13.28;94152.03;5054129;28;20045;-57
2021/10/13 07:57:16;;;;;;;10.10;9.20;;;;;;;34.89;13.52;94159.31;5054863;28;20049;-51
2021/10/13 07:59:43;;;;;;;8.55;7.75;;;;;;;34.68;13.54;94159.34;5053872;28;20448;-54
2021/10/13 08:02:10;;;;;;;8.00;7.30;;;;;;;34.56;13.28;94164.41;5054292;28;20336;-53
2021/10/13 08:04:37;;;;;;;8.73;7.70;;;;;;;33.99;14.15;94155.63;5053612;28;20070;-51
2021/10/13 08:07:04;;;;;;;7.53;6.85;;;;;;;33.83;14.00;94165.84;5052923;28;20056;-55
2021/10/13 08:09:32;;;;;;;8.38;7.22;;;;;;;33.78;14.13;94155.56;5053985;28;20044;-54
2021/10/13 08:12:00;;;;;;;8.05;7.32;;;;;;;33.78;14.39;94172.59;5054087;28;20064;-53
2021/10/13 08:14:28;;;;;;;29.27;21.85;;;;;;;34.25;14.82;94172.50;5053705;28;20064;-52
2021/10/13 08:16:57;;;;;;;134.30;118.63;;;;;;;34.42;14.52;94164.97;5054140;28;20049;-53
2021/10/13 08:19:25;;;;;;;44.40;37.08;;;;;;;34.88;14.04;94173.34;5058608;28;20053;-53
2021/10/13 08:21:52;;;;;;;15.02;13.45;;;;;;;35.95;13.30;94174.47;5052970;28;20055;-49
2021/10/13 08:24:19;;;;;;;10.30;9.30;;;;;;;35.81;13.53;94175.78;5053863;28;20056;-48
2021/10/13 08:26:46;;;;;;;14.43;8.70;;;;;;;35.20;14.06;94174.78;5068107;28;20075;-49
2021/10/13 08:29:14;;;;;;;10.23;8.40;;;;;;;34.46;14.15;94172.97;5072608;28;20478;-49
2021/10/13 08:31:41;;;;;;;8.23;7.53;;;;;;;34.32;14.10;94168.78;5052868;28;20056;-50
2021/10/13 08:34:08;;;;;;;8.55;7.07;;;;;;;34.84;14.11;94161.84;5052963;28;20059;-42
2021/10/13 08:36:35;;;;;;;8.38;7.47;;;;;;;35.16;13.56;94166.03;5053803;28;20045;-61
2021/10/13 08:39:02;;;;;;;8.05;7.25;;;;;;;34.82;14.13;94158.78;5058205;28;20048;-56
2021/10/13 08:41:29;;;;;;;8.20;7.40;;;;;;;34.39;14.59;94170.53;5053971;28;20494;-47
2021/10/13 08:43:57;;;;;;;8.30;7.47;;;;;;;33.97;14.61;94170.81;5061367;28;20360;-50
2021/10/13 08:46:24;;;;;;;7.65;6.95;;;;;;;33.99;14.62;94176.56;5053397;28;20056;-59
2021/10/13 08:48:51;;;;;;;8.38;7.57;;;;;;;33.93;15.22;94179.09;5060596;28;20044;-49
2021/10/13 08:51:18;;;;;;;7.70;6.90;;;;;;;33.84;14.89;94191.81;5073745;28;20056;-47
2021/10/13 08:53:45;;;;;;;7.75;7.05;;;;;;;34.55;14.25;94179.19;5072214;28;20041;-54
2021/10/13 08:56:13;;;;;;;7.20;6.50;;;;;;;34.74;14.19;94174.59;5060374;28;20060;-53
2021/10/13 08:58:41;;;;;;;8.18;7.18;;;;;;;34.33;14.47;94184.59;5073820;28;20044;-49
2021/10/13 09:01:13;;;;;;;8.15;7.35;;;;;;;33.84;14.49;94191.81;5073829;28;20048;-49
2021/10/13 09:03:44;;;;;;;7.72;7.00;;;;;;;34.01;14.18;94195.84;5072716;28;20048;-51
2021/10/13 09:06:24;;;;;;;7.90;7.10;;;;;;;33.84;14.95;94191.81;5053372;28;20436;-53
2021/10/13 09:09:07;;;;;;;8.30;7.10;;;;;;;33.02;15.52;94200.59;5060800;28;20355;-48
2021/10/13 09:11:43;;;;;;;7.35;6.65;;;;;;;33.06;15.46;94200.50;5053430;28;20056;-49
2021/10/13 09:14:16;;;;;;;7.93;6.60;;;;;;;33.41;15.21;94190.50;5053327;28;20060;-48
2021/10/13 09:16:52;;;;;;;7.97;7.20;;;;;;;33.46;15.74;94175.63;5061247;28;20469;-47
2021/10/13 09:19:21;;;;;;;8.30;7.53;;;;;;;33.53;15.53;94183.53;5062774;28;20348;-47
2021/10/13 09:21:49;;;;;;;7.50;6.80;;;;;;;33.36;15.12;94180.22;5061028;28;20308;-47
2021/10/13 09:24:16;;;;;;;7.28;6.68;;;;;;;33.31;15.21;94191.56;5061307;28;20447;-48
2021/10/13 09:26:43;;;;;;;7.53;6.82;;;;;;;33.22;15.10;94196.88;5061854;28;20049;-53
2021/10/13 09:29:11;;;;;;;7.70;7.00;;;;;;;33.38;15.06;94200.25;5061653;28;20045;-49
2021/10/13 09:31:39;;;;;;;7.50;6.80;;;;;;;33.08;15.74;94207.00;5045445;28;20057;-49
2021/10/13 09:34:08;;;;;;;7.88;7.07;;;;;;;32.90;15.59;94204.06;5061758;28;20383;-50
2021/10/13 09:36:47;;;;;;;7.18;6.47;;;;;;;33.04;15.18;94208.28;5060120;28;20072;-50
2021/10/13 09:39:16;;;;;;;7.50;6.70;;;;;;;33.61;14.74;94196.41;5050923;28;20048;-51
2021/10/13 09:41:55;;;;;;;7.15;6.55;;;;;;;33.83;14.30;94195.66;5065560;28;20498;-50
2021/10/13 09:44:23;;;;;;;7.35;6.55;;;;;;;33.95;14.47;94203.03;5064735;28;20460;-50
2021/10/13 09:46:51;;;;;;;7.60;6.90;;;;;;;33.86;14.39;94200.25;5065528;28;20064;-51
2021/10/13 09:49:27;;;;;;;7.50;6.80;;;;;;;33.36;14.85;94196.47;5048882;28;20044;-53
2021/10/13 09:52:01;;;;;;;7.45;6.70;;;;;;;32.96;14.70;94204.28;5067240;28;20056;-52
2021/10/13 09:54:29;;;;;;;7.55;6.85;;;;;;;33.19;14.31;94209.34;5066977;28;20053;-48
2021/10/13 09:56:56;;;;;;;8.30;7.50;;;;;;;32.90;14.47;94212.19;5065770;28;20044;-49
2021/10/13 09:59:24;;;;;;;11.50;7.25;;;;;;;32.81;14.67;94206.66;5067459;28;20464;-50
2021/10/13 10:01:57;;;;;;;8.48;7.07;;;;;;;32.97;14.95;94214.66;5065808;28;20055;-49
2021/10/13 10:04:25;;;;;;;7.95;7.05;;;;;;;32.82;15.11;94202.78;5063653;28;20455;-51
2021/10/13 10:06:57;;;;;;;8.52;7.40;;;;;;;32.94;15.25;94204.72;5045785;28;20052;-49
2021/10/13 10:09:26;;;;;;;7.75;7.00;;;;;;;32.88;15.25;94201.03;5058936;28;20063;-50
2021/10/13 10:12:07;;;;;;;8.48;7.60;;;;;;;32.74;14.94;94207.59;5056705;28;20041;-49
2021/10/13 10:14:40;;;;;;;7.50;6.82;;;;;;;32.65;14.84;94204.03;5056135;28;20059;-48
2021/10/13 10:17:07;;;;;;;7.43;6.60;;;;;;;32.54;14.17;94203.59;5056279;28;20049;-48
2021/10/13 10:19:45;;;;;;;7.50;6.80;;;;;;;32.32;14.87;94209.59;5038667;28;20049;-51
2021/10/13 10:22:21;;;;;;;7.65;6.95;;;;;;;32.48;15.09;94214.16;5055618;28;20048;-51
2021/10/13 10:24:55;;;;;;;8.02;6.85;;;;;;;32.38;15.08;94213.28;5055280;28;20379;-49
2021/10/13 10:27:27;;;;;;;9.55;7.30;;;;;;;32.46;15.01;94203.78;5054951;28;20379;-52
2021/10/13 10:30:09;;;;;;;7.82;7.07;;;;;;;32.73;14.93;94210.72;5056339;28;20045;-47
2021/10/13 10:32:38;;;;;;;8.13;7.32;;;;;;;32.62;15.61;94202.94;5055411;28;20466;-54
2021/10/13 10:35:05;;;;;;;8.05;7.35;;;;;;;32.57;15.47;94197.31;5055887;28;20053;-51
2021/10/13 10:37:44;;;;;;;8.63;7.20;;;;;;;33.08;14.77;94198.09;5054449;28;20045;-51
2021/10/13 10:40:16;;;;;;;7.15;6.28;;;;;;;32.64;15.47;94197.09;5055117;28;20368;-51
2021/10/13 10:43:06;;;;;;;6.53;5.97;;;;;;;32.67;14.76;94201.63;5038443;28;20056;-49
2021/10/13 10:45:35;;;;;;;8.67;6.50;;;;;;;32.48;14.98;94204.09;5054906;28;20372;-48
2021/10/13 10:48:02;;;;;;;9.55;6.85;;;;;;;32.31;15.56;94205.38;5055602;28;20059;-56
2021/10/13 10:50:36;;;;;;;7.75;6.90;;;;;;;32.03;15.97;94200.72;5054941;28;20061;-53
2021/10/13 10:53:36;;;;;;;8.90;6.88;;;;;;;31.71;16.03;94205.00;5054614;28;20056;-51
2021/10/13 10:56:25;;;;;;;7.35;6.65;;;;;;;32.04;15.70;94199.53;5054998;28;20053;-52
2021/10/13 10:59:12;;;;;;;7.85;7.00;;;;;;;32.20;16.10;94211.03;5055830;28;20048;-51
2021/10/13 11:02:00;;;;;;;8.10;7.30;;;;;;;32.28;15.95;94208.94;5058579;28;20047;-51
2021/10/13 11:04:27;;;;;;;8.38;7.68;;;;;;;32.30;15.79;94201.16;5075437;28;20062;-56
2021/10/13 11:06:54;;;;;;;7.32;6.63;;;;;;;31.90;15.76;94206.06;5058060;28;20055;-54
2021/10/13 11:09:25;;;;;;;8.93;6.72;;;;;;;31.92;16.08;94213.75;5075599;28;20048;-52
2021/10/13 11:11:52;;;;;;;8.05;7.25;;;;;;;31.98;16.02;94202.00;5075353;28;20049;-49
2021/10/13 11:14:27;;;;;;;8.15;7.35;;;;;;;31.84;15.77;94197.72;5075321;28;20047;-52
2021/10/13 11:17:03;;;;;;;7.03;6.32;;;;;;;31.69;15.93;94191.16;5075256;28;20051;-52
2021/10/13 11:19:30;;;;;;;7.47;6.78;;;;;;;32.12;16.02;94208.97;5075111;28;20063;-51
2021/10/13 11:22:04;;;;;;;7.43;6.28;;;;;;;32.11;15.72;94199.34;5070414;28;20562;-54
2021/10/13 11:24:35;;;;;;;9.00;6.63;;;;;;;32.04;15.44;94199.53;5069891;28;20051;-53
2021/10/13 11:27:02;;;;;;;;;;;;;;;31.71;16.22;94207.72;5075574;28;20351;-57
2021/10/13 11:29:32;;;;;;;6.72;6.13;;;;;;;31.95;15.64;94202.09;5055458;28;19912;-53
2021/10/13 11:32:17;;;;;;;6.93;6.22;;;;;;;31.98;15.71;94206.63;5054990;28;20333;-53
2021/10/13 11:34:56;;;;;;;8.27;6.03;;;;;;;32.07;15.30;94210.25;5055031;28;20057;-51
2021/10/13 11:37:26;;;;;;;7.07;6.00;;;;;;;32.16;15.46;94217.75;5037222;28;20049;-49
2021/10/13 11:39:53;;;;;;;6.43;5.82;;;;;;;31.87;15.32;94207.69;5055155;28;20064;-53
2021/10/13 11:42:23;;;;;;;8.85;6.00;;;;;;;32.03;15.29;94208.84;5054667;28;20440;-49